Time;durP1;ratioP1;P1;durP2;ratioP2;P2;SDS_P1;SDS_P2;PMS_P1;PMS_P2;Temp;Humidity;BMP_temperature;BMP_pressure;BME280_temperature;BME280_humidity;BME280_pressure;Samples;Min_cycle;Max_cycle;Signal;HPM_P1;HPM_P2
2022/12/25 00:00:18;;;;;;;69.80;56.03;;;;;;;;;;5105181;28;20078;-76
2022/12/25 00:02:43;;;;;;;61.05;50.58;;;;;;;;;;5115155;28;20035;-77
2022/12/25 00:05:08;;;;;;;64.38;51.90;;;;;;;;;;5115359;28;20031;-76
2022/12/25 00:07:34;;;;;;;79.43;65.72;;;;;;;;;;5116470;28;20453;-75
2022/12/25 00:09:59;;;;;;;76.47;64.70;;;;;;;;;;5112736;28;20027;-75
2022/12/25 00:12:24;;;;;;;67.40;56.20;;;;;;;;;;5106216;28;20557;-77
2022/12/25 00:14:49;;;;;;;78.28;63.67;;;;;;;;;;5119984;27;20020;-76
2022/12/25 00:17:15;;;;;;;66.45;53.90;;;;;;;;;;5121107;27;20015;-75
2022/12/25 00:19:40;;;;;;;123.68;106.03;;;;;;;;;;5119289;27;20422;-76
2022/12/25 00:22:05;;;;;;;93.88;75.90;;;;;;;;;;5116840;27;20065;-75
2022/12/25 00:24:31;;;;;;;73.35;62.38;;;;;;;;;;5114699;27;20063;-78
2022/12/25 00:26:56;;;;;;;75.85;62.95;;;;;;;;;;5104662;27;20127;-78
2022/12/25 00:29:21;;;;;;;73.43;58.85;;;;;;;;;;5113651;27;20023;-77
2022/12/25 00:31:47;;;;;;;93.13;75.50;;;;;;;;;;5104181;27;20024;-75
2022/12/25 00:34:12;;;;;;;78.60;67.60;;;;;;;;;;5117860;27;20032;-76
2022/12/25 00:36:37;;;;;;;99.57;85.60;;;;;;;;;;5117835;27;20031;-75
2022/12/25 00:39:03;;;;;;;98.60;82.13;;;;;;;;;;5119469;27;20147;-77
2022/12/25 00:44:12;;;;;;;77.38;65.53;;;;;;;;;;5115090;27;20061;-78
2022/12/25 00:46:37;;;;;;;75.80;63.75;;;;;;;;;;5118728;27;20022;-76
2022/12/25 00:49:03;;;;;;;75.18;60.53;;;;;;;;;;5120982;27;20080;-76
2022/12/25 00:51:28;;;;;;;65.88;53.13;;;;;;;;;;5110282;27;20023;-77
2022/12/25 00:53:54;;;;;;;64.53;54.00;;;;;;;;;;5115687;27;20102;-77
2022/12/25 00:56:19;;;;;;;59.92;48.97;;;;;;;;;;5110767;27;20031;-75
2022/12/25 00:58:45;;;;;;;63.60;51.97;;;;;;;;;;5108263;27;20043;-76
2022/12/25 01:01:10;;;;;;;57.53;46.70;;;;;;;;;;5118304;27;20430;-75
2022/12/25 01:03:36;;;;;;;49.47;41.22;;;;;;;;;;5118412;27;20103;-76
2022/12/25 01:06:03;;;;;;;41.47;35.83;;;;;;;;;;5117044;27;20114;-75
2022/12/25 01:08:30;;;;;;;45.55;40.17;;;;;;;;;;5116650;27;20035;-75
2022/12/25 01:10:56;;;;;;;49.00;41.42;;;;;;;;;;5115009;27;20036;-76
2022/12/25 01:13:21;;;;;;;53.78;42.83;;;;;;;;;;5105679;27;20031;-75
2022/12/25 01:15:47;;;;;;;44.83;39.78;;;;;;;;;;5116916;27;20420;-75
2022/12/25 01:18:12;;;;;;;43.03;38.38;;;;;;;;;;5116561;27;20500;-77
2022/12/25 01:20:37;;;;;;;41.22;36.72;;;;;;;;;;5114890;27;20040;-76
2022/12/25 01:23:03;;;;;;;139.95;101.82;;;;;;;;;;5115695;27;20118;-75
2022/12/25 01:25:28;;;;;;;145.82;108.50;;;;;;;;;;5107264;27;20615;-75
2022/12/25 01:27:53;;;;;;;73.22;57.25;;;;;;;;;;5103673;27;20454;-75
2022/12/25 01:30:18;;;;;;;90.57;67.93;;;;;;;;;;5117903;27;20036;-75
2022/12/25 01:32:44;;;;;;;148.02;108.60;;;;;;;;;;5117753;27;20023;-77
2022/12/25 01:35:10;;;;;;;92.53;68.70;;;;;;;;;;5116180;27;20023;-77
2022/12/25 01:37:36;;;;;;;53.22;43.17;;;;;;;;;;5106382;27;20011;-76
2022/12/25 01:40:01;;;;;;;45.85;39.15;;;;;;;;;;5118711;27;20038;-77
2022/12/25 01:42:27;;;;;;;103.38;80.97;;;;;;;;;;5111389;27;20069;-76
2022/12/25 01:44:52;;;;;;;122.85;90.97;;;;;;;;;;5113443;27;20084;-77
2022/12/25 01:47:17;;;;;;;128.95;100.15;;;;;;;;;;5117131;27;20433;-77
2022/12/25 01:49:45;;;;;;;139.35;106.80;;;;;;;;;;5117553;27;20076;-75
2022/12/25 01:52:12;;;;;;;109.55;84.28;;;;;;;;;;5097604;27;20034;-76
2022/12/25 01:54:43;;;;;;;76.35;60.55;;;;;;;;;;5116354;27;20497;-77
2022/12/25 01:57:12;;;;;;;123.13;95.15;;;;;;;;;;5118544;27;20031;-76
2022/12/25 01:59:38;;;;;;;129.00;99.57;;;;;;;;;;5105655;27;20031;-77
2022/12/25 02:02:03;;;;;;;129.60;102.80;;;;;;;;;;5117403;27;20040;-77
2022/12/25 02:04:38;;;;;;;84.53;69.32;;;;;;;;;;5115694;27;20334;-77
2022/12/25 02:07:08;;;;;;;82.05;65.10;;;;;;;;;;5118873;27;20063;-76
2022/12/25 02:09:33;;;;;;;;;;;;;;;;;;5117707;27;20023;-75
2022/12/25 02:11:59;;;;;;;132.10;106.97;;;;;;;;;;5115537;27;19915;-75
2022/12/25 02:14:26;;;;;;;106.60;87.07;;;;;;;;;;5105963;27;20446;-76
2022/12/25 02:17:06;;;;;;;74.60;57.95;;;;;;;;;;5104191;27;20110;-77
2022/12/25 02:19:32;;;;;;;78.28;60.67;;;;;;;;;;5078237;27;20041;-75
2022/12/25 02:22:05;;;;;;;134.82;104.13;;;;;;;;;;5102510;27;20361;-77
2022/12/25 02:24:39;;;;;;;158.75;126.47;;;;;;;;;;5104080;27;20023;-77
2022/12/25 02:27:14;;;;;;;143.98;117.80;;;;;;;;;;5110048;27;20027;-76
2022/12/25 02:29:45;;;;;;;125.28;104.75;;;;;;;;;;5102333;27;20027;-77
2022/12/25 02:32:14;;;;;;;115.28;96.50;;;;;;;;;;5106378;27;22524;-76
2022/12/25 02:34:45;;;;;;;79.93;65.68;;;;;;;;;;5108316;27;20077;-77
2022/12/25 02:37:17;;;;;;;82.70;69.07;;;;;;;;;;5086110;28;20811;-77
2022/12/25 02:40:01;;;;;;;54.70;48.72;;;;;;;;;;5108078;27;20031;-75
2022/12/25 03:06:41;;;;;;;28.95;25.83;;;;;;;;;;5109228;27;20442;-74
2022/12/25 03:07:18;;;;;;;26.77;22.73;;;;;;;;;;5101474;27;20072;-75
2022/12/25 03:12:50;;;;;;;48.72;42.55;;;;;;;;;;5115188;27;20090;-76
2022/12/25 03:18:02;;;;;;;107.88;88.20;;;;;;;;;;5116358;27;20046;-76
2022/12/25 03:28:40;;;;;;;127.18;98.97;;;;;;;;;;5109307;28;20387;-75
2022/12/25 03:31:15;;;;;;;119.88;97.43;;;;;;;;;;5103368;28;20035;-75
2022/12/25 03:35:21;;;;;;;188.95;152.05;;;;;;;;;;5114474;28;20046;-76
2022/12/25 04:37:15;;;;;;;68.30;56.42;;;;;;;;;;5115685;27;20491;-76
2022/12/25 04:39:40;;;;;;;59.90;50.30;;;;;;;;;;5120009;27;20039;-75
2022/12/25 04:42:05;;;;;;;52.92;43.33;;;;;;;;;;5119278;27;20031;-76
2022/12/25 04:44:30;;;;;;;39.55;33.28;;;;;;;;;;5118308;27;20027;-75
2022/12/25 04:46:56;;;;;;;55.10;45.97;;;;;;;;;;5120700;27;20023;-76
2022/12/25 04:49:21;;;;;;;60.28;51.88;;;;;;;;;;5115438;27;21026;-76
2022/12/25 04:51:46;;;;;;;59.17;48.58;;;;;;;;;;5117902;27;20395;-76
2022/12/25 04:54:12;;;;;;;94.68;82.10;;;;;;;;;;5119052;27;20409;-77
2022/12/25 04:56:37;;;;;;;77.28;68.03;;;;;;;;;;5120282;27;20092;-78
2022/12/25 04:59:02;;;;;;;98.43;88.18;;;;;;;;;;5097661;27;20048;-75
2022/12/25 05:01:28;;;;;;;77.93;69.82;;;;;;;;;;5118528;27;20031;-77
2022/12/25 05:03:53;;;;;;;70.38;62.85;;;;;;;;;;5119133;27;20117;-76
2022/12/25 05:06:19;;;;;;;73.95;64.10;;;;;;;;;;5118547;27;20025;-75
2022/12/25 05:08:44;;;;;;;100.20;89.30;;;;;;;;;;5117920;27;20430;-75
2022/12/25 05:11:11;;;;;;;102.65;91.78;;;;;;;;;;5117801;27;20089;-76
2022/12/25 05:13:37;;;;;;;62.17;55.60;;;;;;;;;;5117360;27;20076;-78
2022/12/25 05:16:11;;;;;;;60.70;54.08;;;;;;;;;;5120523;27;20034;-76
2022/12/25 05:18:36;;;;;;;49.63;44.20;;;;;;;;;;5118279;27;20024;-76
2022/12/25 05:21:02;;;;;;;82.55;63.25;;;;;;;;;;5117571;27;20039;-75
2022/12/25 05:23:28;;;;;;;72.45;56.42;;;;;;;;;;5117855;27;20042;-77
2022/12/25 05:25:53;;;;;;;68.05;54.25;;;;;;;;;;5117650;27;20439;-77
2022/12/25 05:28:18;;;;;;;84.55;67.13;;;;;;;;;;5115893;27;20035;-78
2022/12/25 05:30:43;;;;;;;76.38;62.88;;;;;;;;;;5084761;27;20102;-77
2022/12/25 05:33:09;;;;;;;44.22;38.50;;;;;;;;;;5114241;27;21091;-77
2022/12/25 05:35:38;;;;;;;46.85;39.45;;;;;;;;;;5094680;27;20035;-76
2022/12/25 05:38:03;;;;;;;49.40;43.95;;;;;;;;;;5115942;27;20041;-77
2022/12/25 05:40:29;;;;;;;42.50;37.78;;;;;;;;;;5098070;27;20341;-78
2022/12/25 05:42:54;;;;;;;40.40;33.72;;;;;;;;;;5118276;27;20573;-75
2022/12/25 05:45:19;;;;;;;40.35;35.72;;;;;;;;;;5117272;27;20041;-75
2022/12/25 05:47:44;;;;;;;133.38;109.63;;;;;;;;;;5116273;27;20031;-75
2022/12/25 05:50:10;;;;;;;113.55;101.00;;;;;;;;;;5118307;27;20024;-75
2022/12/25 05:52:35;;;;;;;98.88;82.03;;;;;;;;;;5117158;27;20039;-76
2022/12/25 05:55:00;;;;;;;88.03;72.93;;;;;;;;;;5115836;27;20034;-76
2022/12/25 05:57:29;;;;;;;130.73;102.22;;;;;;;;;;5116128;27;20039;-76
2022/12/25 05:59:54;;;;;;;88.85;74.07;;;;;;;;;;5113822;27;20031;-75
2022/12/25 06:02:19;;;;;;;73.35;58.75;;;;;;;;;;5117300;27;20092;-75
2022/12/25 06:04:45;;;;;;;238.00;189.93;;;;;;;;;;5116972;27;20027;-75
2022/12/25 06:07:10;;;;;;;252.98;195.10;;;;;;;;;;5118881;27;20026;-75
2022/12/25 06:09:35;;;;;;;214.02;181.07;;;;;;;;;;5116277;27;20776;-76
2022/12/25 06:12:01;;;;;;;102.15;84.60;;;;;;;;;;5117938;27;20419;-75
2022/12/25 06:14:26;;;;;;;90.60;69.95;;;;;;;;;;5117222;27;20438;-76
2022/12/25 06:16:52;;;;;;;279.38;226.90;;;;;;;;;;5116813;27;20069;-75
2022/12/25 06:19:18;;;;;;;244.13;194.77;;;;;;;;;;5117661;27;21294;-76
2022/12/25 06:21:43;;;;;;;269.67;224.68;;;;;;;;;;5117416;27;20064;-76
2022/12/25 06:24:08;;;;;;;182.55;151.90;;;;;;;;;;5117096;27;20027;-75
2022/12/25 06:26:35;;;;;;;136.30;117.40;;;;;;;;;;5115347;27;20450;-75
2022/12/25 06:29:00;;;;;;;412.20;297.92;;;;;;;;;;5095506;27;20019;-78
2022/12/25 06:31:26;;;;;;;343.60;254.65;;;;;;;;;;5091836;27;20027;-76
2022/12/25 06:33:51;;;;;;;168.77;128.60;;;;;;;;;;5096131;27;20426;-73
2022/12/25 06:36:19;;;;;;;145.52;113.55;;;;;;;;;;5109848;27;20020;-73
2022/12/25 06:38:45;;;;;;;180.30;143.43;;;;;;;;;;5114676;27;20023;-76
2022/12/25 06:41:12;;;;;;;139.38;110.07;;;;;;;;;;5109859;27;20019;-73
2022/12/25 06:43:37;;;;;;;111.07;95.00;;;;;;;;;;5090263;28;20371;-72
2022/12/25 06:46:03;;;;;;;86.57;77.05;;;;;;;;;;5112810;28;20070;-73
2022/12/25 06:48:29;;;;;;;72.63;63.53;;;;;;;;;;5112943;28;20023;-71
2022/12/25 06:50:54;;;;;;;221.32;190.48;;;;;;;;;;5096752;28;20433;-74
2022/12/25 06:53:19;;;;;;;231.30;191.32;;;;;;;;;;5091666;28;20016;-75
2022/12/25 06:55:45;;;;;;;184.18;147.38;;;;;;;;;;5093266;28;20508;-72
2022/12/25 06:58:10;;;;;;;205.82;171.48;;;;;;;;;;5092971;28;20044;-73
2022/12/25 07:00:35;;;;;;;416.63;317.90;;;;;;;;;;5093192;28;20082;-72
2022/12/25 07:03:00;;;;;;;351.90;282.15;;;;;;;;;;5092904;28;20016;-73
2022/12/25 07:05:26;;;;;;;184.15;149.43;;;;;;;;;;5092882;28;20039;-72
2022/12/25 07:07:51;;;;;;;171.93;130.15;;;;;;;;;;5093289;28;20458;-73
2022/12/25 07:10:16;;;;;;;230.38;188.82;;;;;;;;;;5093374;28;20092;-72
2022/12/25 07:12:42;;;;;;;161.25;136.68;;;;;;;;;;5092978;28;20024;-72
2022/12/25 07:15:07;;;;;;;258.85;213.52;;;;;;;;;;5093112;28;20028;-73
2022/12/25 07:17:33;;;;;;;263.83;210.90;;;;;;;;;;5093144;28;20028;-73
2022/12/25 07:19:58;;;;;;;397.23;324.45;;;;;;;;;;5092848;28;20028;-72
2022/12/25 07:22:24;;;;;;;433.38;357.40;;;;;;;;;;5092855;28;20031;-71
2022/12/25 07:24:49;;;;;;;426.63;350.75;;;;;;;;;;5093070;28;20498;-72
2022/12/25 07:27:14;;;;;;;444.23;357.05;;;;;;;;;;5092119;28;20439;-74
2022/12/25 07:29:39;;;;;;;398.15;318.30;;;;;;;;;;5084448;28;20024;-73
2022/12/25 07:32:05;;;;;;;313.13;260.00;;;;;;;;;;5083382;28;20023;-75
2022/12/25 07:34:30;;;;;;;359.95;298.20;;;;;;;;;;5091599;28;20055;-72
2022/12/25 07:36:55;;;;;;;347.27;297.08;;;;;;;;;;5092880;28;20031;-74
2022/12/25 07:39:22;;;;;;;325.67;274.20;;;;;;;;;;5092052;28;20351;-72
2022/12/25 07:41:47;;;;;;;357.70;308.48;;;;;;;;;;5093772;28;20028;-74
2022/12/25 07:44:13;;;;;;;326.75;273.75;;;;;;;;;;5082627;28;20463;-74
2022/12/25 07:46:38;;;;;;;274.88;233.00;;;;;;;;;;5071094;28;21012;-74
2022/12/25 07:49:04;;;;;;;201.30;167.95;;;;;;;;;;5070169;28;20654;-72
2022/12/25 07:51:29;;;;;;;172.27;146.10;;;;;;;;;;5071931;28;20671;-72
2022/12/25 07:53:54;;;;;;;179.35;153.73;;;;;;;;;;5072524;28;20510;-73
2022/12/25 07:56:20;;;;;;;194.23;165.13;;;;;;;;;;5069210;28;20028;-75
2022/12/25 07:58:45;;;;;;;165.98;146.93;;;;;;;;;;5067666;28;20047;-74
2022/12/25 08:01:11;;;;;;;153.75;123.20;;;;;;;;;;5073568;28;20016;-75
2022/12/25 08:03:36;;;;;;;147.93;121.63;;;;;;;;;;5081356;28;20435;-75
2022/12/25 08:06:03;;;;;;;163.07;134.20;;;;;;;;;;5095189;28;20026;-73
2022/12/25 08:08:29;;;;;;;161.25;140.27;;;;;;;;;;5093040;28;20181;-74
2022/12/25 08:10:54;;;;;;;135.45;120.53;;;;;;;;;;5093007;28;20793;-73
2022/12/25 08:13:20;;;;;;;97.80;87.30;;;;;;;;;;5092371;28;20027;-72
2022/12/25 08:15:45;;;;;;;98.32;87.93;;;;;;;;;;5095801;28;20382;-74
2022/12/25 08:18:10;;;;;;;91.13;81.40;;;;;;;;;;5092567;28;20308;-73
2022/12/25 08:20:36;;;;;;;85.95;76.80;;;;;;;;;;5076375;28;20188;-72
2022/12/25 08:23:01;;;;;;;145.73;116.32;;;;;;;;;;5085325;28;20028;-74
2022/12/25 08:25:27;;;;;;;138.95;120.50;;;;;;;;;;5093308;28;20036;-77
2022/12/25 08:27:52;;;;;;;129.90;112.75;;;;;;;;;;5077101;28;20164;-75
2022/12/25 08:30:17;;;;;;;120.05;94.63;;;;;;;;;;5072230;28;20378;-75
2022/12/25 08:32:46;;;;;;;102.65;79.40;;;;;;;;;;5078920;28;20032;-74
2022/12/25 08:35:11;;;;;;;90.05;73.30;;;;;;;;;;5079260;28;20016;-75
2022/12/25 08:37:36;;;;;;;82.30;71.68;;;;;;;;;;5093697;28;20020;-75
2022/12/25 08:40:02;;;;;;;328.85;231.18;;;;;;;;;;5084133;28;20027;-74
2022/12/25 08:42:27;;;;;;;622.15;446.88;;;;;;;;;;5090750;28;20032;-75
2022/12/25 08:44:52;;;;;;;374.50;266.63;;;;;;;;;;5096254;28;20106;-73
2022/12/25 08:47:18;;;;;;;237.23;173.68;;;;;;;;;;5097200;28;20377;-74
2022/12/25 08:49:43;;;;;;;54.20;45.13;;;;;;;;;;5093961;28;20062;-74
2022/12/25 08:52:08;;;;;;;39.55;35.17;;;;;;;;;;5081922;28;20024;-73
2022/12/25 08:54:35;;;;;;;45.05;40.28;;;;;;;;;;5075635;28;20032;-72
2022/12/25 08:57:01;;;;;;;22.65;20.25;;;;;;;;;;5068794;28;20427;-73
2022/12/25 08:59:26;;;;;;;34.38;29.63;;;;;;;;;;5067173;28;20077;-75
2022/12/25 09:01:51;;;;;;;26.95;24.08;;;;;;;;;;5071243;28;20497;-74
2022/12/25 09:04:16;;;;;;;22.17;19.98;;;;;;;;;;5082379;28;20098;-73
2022/12/25 09:06:42;;;;;;;24.17;21.77;;;;;;;;;;5084139;28;20023;-73
2022/12/25 09:09:07;;;;;;;46.20;34.97;;;;;;;;;;5098821;28;20041;-73
2022/12/25 09:11:32;;;;;;;55.85;41.42;;;;;;;;;;5095815;28;20111;-72
2022/12/25 09:13:58;;;;;;;58.53;46.17;;;;;;;;;;5094148;28;20155;-72
2022/12/25 09:16:24;;;;;;;28.60;25.13;;;;;;;;;;5079821;28;20020;-72
2022/12/25 09:18:49;;;;;;;20.98;18.88;;;;;;;;;;5073025;28;20049;-74
2022/12/25 09:21:15;;;;;;;21.27;19.20;;;;;;;;;;5073548;28;20332;-77
2022/12/25 09:23:41;;;;;;;23.67;21.35;;;;;;;;;;5071648;28;20121;-73
2022/12/25 09:26:07;;;;;;;27.88;22.00;;;;;;;;;;5071720;28;20055;-73
2022/12/25 09:28:33;;;;;;;25.67;22.88;;;;;;;;;;5075494;28;20028;-72
2022/12/25 09:30:59;;;;;;;24.15;21.65;;;;;;;;;;5072582;28;21961;-74
2022/12/25 09:33:25;;;;;;;16.48;14.18;;;;;;;;;;5072651;28;20028;-72
2022/12/25 09:35:57;;;;;;;35.80;31.90;;;;;;;;;;5065350;28;20089;-76
2022/12/25 09:38:23;;;;;;;15.73;13.82;;;;;;;;;;5083042;28;20058;-74
2022/12/25 09:40:56;;;;;;;23.58;20.30;;;;;;;;;;5076679;28;20107;-72
2022/12/25 09:43:23;;;;;;;32.60;26.77;;;;;;;;;;5075309;28;20112;-78
2022/12/25 09:45:48;;;;;;;23.02;20.55;;;;;;;;;;5069185;28;20024;-72
2022/12/25 09:48:14;;;;;;;16.35;13.10;;;;;;;;;;5073504;28;20038;-73
2022/12/25 09:50:40;;;;;;;19.27;15.95;;;;;;;;;;5084916;28;20020;-73
2022/12/25 09:53:22;;;;;;;14.20;12.82;;;;;;;;;;5080422;28;20047;-73
2022/12/25 09:56:07;;;;;;;16.30;14.60;;;;;;;;;;5084465;28;20405;-73
2022/12/25 09:58:33;;;;;;;11.85;10.65;;;;;;;;;;5070103;28;20045;-73
2022/12/25 10:01:02;;;;;;;11.00;10.00;;;;;;;;;;5081490;28;20036;-76
2022/12/25 10:03:40;;;;;;;20.50;18.23;;;;;;;;;;5080518;28;20032;-74
2022/12/25 10:06:21;;;;;;;11.10;9.88;;;;;;;;;;5079647;28;20142;-75
2022/12/25 10:08:55;;;;;;;18.73;16.38;;;;;;;;;;5077714;28;20027;-73
2022/12/25 10:11:39;;;;;;;22.52;18.95;;;;;;;;;;5078943;28;20026;-72
2022/12/25 10:14:16;;;;;;;16.13;14.43;;;;;;;;;;5076638;28;20439;-74
2022/12/25 10:16:42;;;;;;;19.05;16.25;;;;;;;;;;5075662;28;20466;-75
2022/12/25 10:19:16;;;;;;;21.00;18.42;;;;;;;;;;5078843;28;20023;-74
2022/12/25 10:21:41;;;;;;;14.00;12.60;;;;;;;;;;5074698;28;20608;-73
2022/12/25 10:24:33;;;;;;;13.00;11.63;;;;;;;;;;5077007;27;20045;-75
2022/12/25 10:27:00;;;;;;;12.90;11.30;;;;;;;;;;5040085;28;20040;-74
2022/12/25 10:29:29;;;;;;;11.88;10.55;;;;;;;;;;5045934;28;20101;-74
2022/12/25 10:31:55;;;;;;;13.48;12.13;;;;;;;;;;5045286;28;20039;-76
2022/12/25 10:34:21;;;;;;;10.02;9.02;;;;;;;;;;5041331;28;20047;-75
2022/12/25 10:36:48;;;;;;;10.48;9.45;;;;;;;;;;5052519;28;20033;-76
2022/12/25 10:39:18;;;;;;;10.55;9.45;;;;;;;;;;5050136;28;20016;-74
2022/12/25 10:42:02;;;;;;;20.08;17.95;;;;;;;;;;5052730;28;20039;-74
2022/12/25 10:44:27;;;;;;;12.98;10.70;;;;;;;;;;5043032;28;20032;-74
2022/12/25 10:46:54;;;;;;;11.27;10.07;;;;;;;;;;5049746;28;20033;-74
2022/12/25 10:49:20;;;;;;;11.77;10.48;;;;;;;;;;5052708;28;20016;-74
2022/12/25 10:51:45;;;;;;;10.07;9.05;;;;;;;;;;5049225;28;20821;-73
2022/12/25 10:54:27;;;;;;;16.23;14.52;;;;;;;;;;5038154;28;20553;-75
2022/12/25 10:57:00;;;;;;;13.45;12.05;;;;;;;;;;5053646;28;20028;-73
2022/12/25 10:59:30;;;;;;;13.88;12.48;;;;;;;;;;5051682;28;20037;-73
2022/12/25 11:01:56;;;;;;;14.73;13.32;;;;;;;;;;5049978;28;20456;-75
2022/12/25 11:04:24;;;;;;;26.35;23.65;;;;;;;;;;5082930;28;20475;-73
2022/12/25 11:07:04;;;;;;;14.30;12.95;;;;;;;;;;5094386;28;20015;-73
2022/12/25 11:09:29;;;;;;;;;;;;;;;;;;5094518;28;20021;-74
2022/12/25 11:11:54;;;;;;;89.10;70.47;;;;;;;;;;5093111;28;19939;-73
2022/12/25 11:14:21;;;;;;;61.42;53.08;;;;;;;;;;5093485;28;20087;-74
2022/12/25 11:16:47;;;;;;;18.85;16.88;;;;;;;;;;5094624;28;20133;-74
2022/12/25 11:19:38;;;;;;;17.58;15.85;;;;;;;;;;5094557;28;20387;-74
2022/12/25 11:22:15;;;;;;;66.63;59.33;;;;;;;;;;5092118;28;20067;-74
2022/12/25 11:24:40;;;;;;;28.15;25.25;;;;;;;;;;5093492;28;20446;-74
2022/12/25 11:27:06;;;;;;;21.77;19.40;;;;;;;;;;5095365;28;20066;-74
2022/12/25 11:29:31;;;;;;;26.08;23.50;;;;;;;;;;5092892;28;20135;-73
2022/12/25 11:31:57;;;;;;;13.80;12.40;;;;;;;;;;5091349;28;20016;-79
2022/12/25 11:34:39;;;;;;;13.88;12.13;;;;;;;;;;5094391;28;20059;-74
2022/12/25 11:37:10;;;;;;;12.57;11.35;;;;;;;;;;5094622;28;21260;-76
2022/12/25 11:39:37;;;;;;;29.30;26.35;;;;;;;;;;5091671;28;20019;-74
2022/12/25 11:42:20;;;;;;;25.77;23.25;;;;;;;;;;5095946;28;20408;-74
2022/12/25 11:44:50;;;;;;;22.20;19.85;;;;;;;;;;5094464;28;20028;-77
2022/12/25 11:47:29;;;;;;;25.13;22.73;;;;;;;;;;5094008;28;20068;-76
2022/12/25 11:49:58;;;;;;;13.98;11.10;;;;;;;;;;5094586;28;20035;-73
2022/12/25 11:52:27;;;;;;;11.80;10.63;;;;;;;;;;5094589;28;20067;-74
2022/12/25 11:54:55;;;;;;;11.20;10.15;;;;;;;;;;5090518;28;20024;-73
2022/12/25 11:57:22;;;;;;;15.23;13.80;;;;;;;;;;5086404;28;20054;-73
2022/12/25 11:59:52;;;;;;;14.30;12.85;;;;;;;;;;5093605;28;20034;-73
2022/12/25 12:02:36;;;;;;;10.77;9.75;;;;;;;;;;5089122;28;20023;-76
2022/12/25 12:05:13;;;;;;;14.95;13.45;;;;;;;;;;5091200;28;20040;-72
2022/12/25 12:07:48;;;;;;;15.00;13.45;;;;;;;;;;5088126;28;20456;-75
2022/12/25 12:10:23;;;;;;;8.05;7.25;;;;;;;;;;5094985;28;20024;-73
2022/12/25 12:13:07;;;;;;;30.85;27.65;;;;;;;;;;5097181;28;20102;-73
2022/12/25 12:15:43;;;;;;;11.10;10.00;;;;;;;;;;5098921;28;20078;-75
2022/12/25 12:18:09;;;;;;;9.02;8.13;;;;;;;;;;5098151;28;20442;-75
2022/12/25 12:20:35;;;;;;;13.40;12.10;;;;;;;;;;5097647;28;20152;-75
2022/12/25 12:23:02;;;;;;;19.85;17.83;;;;;;;;;;5097032;28;20035;-74
2022/12/25 12:25:27;;;;;;;16.25;13.32;;;;;;;;;;5099128;28;20024;-73
2022/12/25 12:27:54;;;;;;;10.45;9.45;;;;;;;;;;5095019;28;20035;-76
2022/12/25 12:30:25;;;;;;;11.63;10.45;;;;;;;;;;5094068;28;20024;-74
2022/12/25 12:32:57;;;;;;;8.65;7.75;;;;;;;;;;5095238;28;20023;-74
2022/12/25 12:35:34;;;;;;;8.27;7.40;;;;;;;;;;5077395;28;20122;-73
2022/12/25 12:38:18;;;;;;;21.88;19.20;;;;;;;;;;5090316;28;20028;-74
2022/12/25 12:40:44;;;;;;;6.78;6.07;;;;;;;;;;5091503;28;20078;-76
2022/12/25 12:43:24;;;;;;;7.15;5.45;;;;;;;;;;5090697;28;20036;-75
2022/12/25 12:45:57;;;;;;;6.50;5.70;;;;;;;;;;5080284;28;20121;-75
2022/12/25 12:48:26;;;;;;;70.75;39.90;;;;;;;;;;5095828;28;20024;-75
2022/12/25 12:50:51;;;;;;;;;;;;;;;;;;5096366;28;20031;-75
2022/12/25 12:53:22;;;;;;;7.63;6.80;;;;;;;;;;5096803;28;20280;-75
2022/12/25 12:55:48;;;;;;;8.05;6.05;;;;;;;;;;5072183;28;20024;-75
2022/12/25 12:58:32;;;;;;;8.35;7.53;;;;;;;;;;5068846;28;20052;-75
2022/12/25 13:01:16;;;;;;;20.95;18.25;;;;;;;;;;5070772;28;20034;-75
2022/12/25 13:04:00;;;;;;;9.88;7.63;;;;;;;;;;5091834;28;20039;-75
2022/12/25 13:06:25;;;;;;;9.98;5.20;;;;;;;;;;5085024;28;20119;-76
2022/12/25 13:08:54;;;;;;;23.50;21.07;;;;;;;;;;5085872;28;20107;-75
2022/12/25 13:11:21;;;;;;;9.75;8.80;;;;;;;;;;5075036;28;20587;-76
2022/12/25 13:13:48;;;;;;;16.77;14.73;;;;;;;;;;5087519;28;20051;-76
2022/12/25 13:16:27;;;;;;;15.23;12.73;;;;;;;;;;5081861;28;20993;-76
2022/12/25 13:18:54;;;;;;;21.48;19.15;;;;;;;;;;5082091;28;20028;-77
2022/12/25 13:21:21;;;;;;;8.82;7.93;;;;;;;;;;5078288;28;20031;-75
2022/12/25 13:23:46;;;;;;;12.07;10.68;;;;;;;;;;5092185;28;20027;-76
2022/12/25 13:26:15;;;;;;;26.35;20.92;;;;;;;;;;5097413;28;20122;-77
2022/12/25 13:28:41;;;;;;;56.92;45.05;;;;;;;;;;5083034;28;20079;-74
2022/12/25 13:31:12;;;;;;;44.88;38.00;;;;;;;;;;5096396;28;20040;-76
2022/12/25 13:33:38;;;;;;;27.17;23.83;;;;;;;;;;5090868;28;20435;-76
2022/12/25 13:36:08;;;;;;;15.15;13.38;;;;;;;;;;5091000;28;20020;-78
2022/12/25 13:38:34;;;;;;;20.45;17.73;;;;;;;;;;5081577;28;20486;-75
2022/12/25 13:43:44;;;;;;;22.02;19.70;;;;;;;;;;5081262;28;20640;-75
2022/12/25 13:46:13;;;;;;;22.17;19.48;;;;;;;;;;5088025;28;20044;-76
2022/12/25 13:48:39;;;;;;;28.73;21.42;;;;;;;;;;5095600;28;20038;-72
2022/12/25 13:51:04;;;;;;;33.72;27.30;;;;;;;;;;5093434;28;21051;-74
2022/12/25 13:53:29;;;;;;;33.42;24.85;;;;;;;;;;5094973;28;20065;-74
2022/12/25 13:55:57;;;;;;;17.48;14.82;;;;;;;;;;5097476;28;20503;-74
2022/12/25 13:58:27;;;;;;;11.50;10.10;;;;;;;;;;5094864;28;20120;-73
2022/12/25 14:00:54;;;;;;;11.27;10.10;;;;;;;;;;5091051;28;20071;-76
2022/12/25 14:03:42;;;;;;;29.42;25.15;;;;;;;;;;5080114;28;20446;-74
2022/12/25 14:06:19;;;;;;;27.10;22.15;;;;;;;;;;5082175;28;20074;-74
2022/12/25 14:08:44;;;;;;;36.35;29.63;;;;;;;;;;5094996;28;20027;-72
2022/12/25 14:11:12;;;;;;;31.50;25.83;;;;;;;;;;5090930;28;20085;-73
2022/12/25 14:13:39;;;;;;;53.28;42.63;;;;;;;;;;5082827;28;20447;-72
2022/12/25 14:16:05;;;;;;;47.63;42.55;;;;;;;;;;5083284;28;20023;-73
2022/12/25 14:18:31;;;;;;;47.53;42.22;;;;;;;;;;5082983;28;20382;-73
2022/12/25 14:21:14;;;;;;;41.20;34.63;;;;;;;;;;5083217;28;20031;-71
2022/12/25 14:23:41;;;;;;;54.85;48.85;;;;;;;;;;5082929;28;20139;-71
2022/12/25 14:26:13;;;;;;;39.45;33.78;;;;;;;;;;5083593;28;20031;-72
2022/12/25 14:28:38;;;;;;;40.90;36.72;;;;;;;;;;5091486;28;20056;-72
2022/12/25 14:31:04;;;;;;;29.35;26.25;;;;;;;;;;5092244;28;20074;-72
2022/12/25 14:33:34;;;;;;;31.60;27.38;;;;;;;;;;5094518;28;20328;-71
2022/12/25 14:35:59;;;;;;;49.40;42.25;;;;;;;;;;5095100;28;20016;-71
2022/12/25 14:38:27;;;;;;;42.22;35.28;;;;;;;;;;5092166;28;20031;-74
2022/12/25 14:40:59;;;;;;;32.55;28.77;;;;;;;;;;5090516;28;20016;-70
2022/12/25 14:43:25;;;;;;;48.47;43.47;;;;;;;;;;5094756;28;20034;-71
2022/12/25 14:45:57;;;;;;;68.30;61.35;;;;;;;;;;5093072;28;20055;-72
2022/12/25 14:48:24;;;;;;;38.47;34.60;;;;;;;;;;5087339;28;20134;-72
2022/12/25 14:50:55;;;;;;;51.60;43.45;;;;;;;;;;5081008;28;20048;-73
2022/12/25 14:53:22;;;;;;;113.53;89.38;;;;;;;;;;5077889;28;20446;-73
2022/12/25 14:55:49;;;;;;;118.47;105.82;;;;;;;;;;5080682;28;20088;-71
2022/12/25 14:58:20;;;;;;;59.30;52.80;;;;;;;;;;5080262;28;20511;-72
2022/12/25 15:00:51;;;;;;;77.00;67.15;;;;;;;;;;5089873;28;20035;-72
2022/12/25 15:03:30;;;;;;;102.47;87.63;;;;;;;;;;5091237;28;20062;-74
2022/12/25 15:05:56;;;;;;;109.47;92.55;;;;;;;;;;5081452;28;20027;-71
2022/12/25 15:08:23;;;;;;;61.60;51.70;;;;;;;;;;5094240;28;20491;-74
2022/12/25 15:10:48;;;;;;;181.05;161.60;;;;;;;;;;5091035;28;20031;-72
2022/12/25 15:13:16;;;;;;;80.43;72.15;;;;;;;;;;5091425;28;20027;-71
2022/12/25 15:15:46;;;;;;;34.33;28.42;;;;;;;;;;5073656;28;20023;-74
2022/12/25 15:18:12;;;;;;;36.88;32.97;;;;;;;;;;5091100;28;20023;-73
2022/12/25 15:20:37;;;;;;;55.35;50.72;;;;;;;;;;5092964;28;20031;-72
2022/12/25 15:23:02;;;;;;;18.00;16.13;;;;;;;;;;5092441;28;20035;-73
2022/12/25 15:25:28;;;;;;;24.85;19.42;;;;;;;;;;5093426;28;20027;-73
2022/12/25 15:27:53;;;;;;;39.05;34.42;;;;;;;;;;5092690;28;20028;-72
2022/12/25 15:30:19;;;;;;;63.55;56.90;;;;;;;;;;5093055;28;20027;-73
2022/12/25 15:32:44;;;;;;;83.95;75.00;;;;;;;;;;5095518;28;20335;-71
2022/12/25 15:35:28;;;;;;;151.45;116.80;;;;;;;;;;5093296;28;20020;-71
2022/12/25 15:37:53;;;;;;;133.77;112.60;;;;;;;;;;5089512;28;20339;-71
2022/12/25 15:40:20;;;;;;;74.45;58.50;;;;;;;;;;5080803;28;20035;-71
2022/12/25 15:42:46;;;;;;;62.47;55.88;;;;;;;;;;5068557;28;20024;-70
2022/12/25 15:45:17;;;;;;;28.40;20.52;;;;;;;;;;5075651;28;20039;-72
2022/12/25 15:47:42;;;;;;;12.00;10.48;;;;;;;;;;5073699;28;20027;-71
2022/12/25 15:50:08;;;;;;;13.18;11.30;;;;;;;;;;5073458;28;20038;-71
2022/12/25 15:52:33;;;;;;;27.10;23.77;;;;;;;;;;5073278;28;20148;-71
2022/12/25 15:54:59;;;;;;;24.10;19.67;;;;;;;;;;5074348;28;20103;-71
2022/12/25 15:57:25;;;;;;;42.53;34.15;;;;;;;;;;5072880;28;20079;-71
2022/12/25 15:59:50;;;;;;;48.03;41.10;;;;;;;;;;5074017;28;20056;-72